createdAt,value
2023-01-27T00:00:55.813Z,0.49
2023-01-27T00:03:22.594Z,0.47
2023-01-27T00:05:49.676Z,0.45
2023-01-27T00:08:17.135Z,0.44
2023-01-27T00:10:43.667Z,0.45
2023-01-27T00:13:27.699Z,0.46
2023-01-27T00:15:55.135Z,0.48
2023-01-27T00:18:31.921Z,0.52
2023-01-27T00:21:16.744Z,0.52
2023-01-27T00:24:01.409Z,0.50
2023-01-27T00:26:27.943Z,0.48
2023-01-27T00:28:54.401Z,0.48
2023-01-27T00:31:39.326Z,0.50
2023-01-27T00:34:11.458Z,0.51
2023-01-27T00:36:39.977Z,0.53
2023-01-27T00:39:07.951Z,0.53
2023-01-27T00:41:39.117Z,0.54
2023-01-27T00:44:06.146Z,0.55
2023-01-27T00:46:33.442Z,0.55
2023-01-27T00:49:15.925Z,0.52
2023-01-27T00:52:01.447Z,0.53
2023-01-27T00:54:29.164Z,0.53
2023-01-27T00:56:55.627Z,0.53
2023-01-27T00:59:23.082Z,0.53
2023-01-27T01:01:49.568Z,0.55
2023-01-27T01:04:19.600Z,0.58
2023-01-27T01:06:46.096Z,0.60
2023-01-27T01:09:12.623Z,0.60
2023-01-27T01:11:39.077Z,0.60
2023-01-27T01:14:05.546Z,0.57
2023-01-27T01:16:33.678Z,0.57
2023-01-27T01:19:00.187Z,0.59
2023-01-27T01:21:29.966Z,0.60
2023-01-27T01:23:56.492Z,0.61
2023-01-27T01:26:22.991Z,0.62
2023-01-27T01:28:49.656Z,0.59
2023-01-27T01:31:18.538Z,0.58
2023-01-27T01:33:46.001Z,0.57
2023-01-27T01:36:18.918Z,0.57
2023-01-27T01:38:45.626Z,0.54
2023-01-27T01:41:16.736Z,0.56
2023-01-27T01:43:43.603Z,0.56
2023-01-27T01:46:11.809Z,0.56
2023-01-27T01:49:02.889Z,0.51
2023-01-27T01:51:39.384Z,0.52
2023-01-27T01:54:23.863Z,0.55
2023-01-27T01:56:55.830Z,0.54
2023-01-27T01:59:30.323Z,0.56
2023-01-27T02:02:07.186Z,0.57
2023-01-27T02:04:42.909Z,0.56
2023-01-27T02:07:19.946Z,0.57
2023-01-27T02:09:46.713Z,0.56
2023-01-27T02:12:13.280Z,0.56
2023-01-27T02:14:41.240Z,0.56
2023-01-27T02:17:09.199Z,0.55
2023-01-27T02:19:54.101Z,0.54
2023-01-27T02:22:43.183Z,0.54
2023-01-27T02:25:23.614Z,0.55
2023-01-27T02:27:53.178Z,0.53
2023-01-27T02:30:19.946Z,0.54
2023-01-27T02:32:46.574Z,0.54
2023-01-27T02:35:36.137Z,0.55
2023-01-27T02:38:03.919Z,0.54
2023-01-27T02:40:32.007Z,0.54
2023-01-27T02:42:59.731Z,0.53
2023-01-27T02:45:26.688Z,0.52
2023-01-27T02:47:56.508Z,0.52
2023-01-27T02:50:29.323Z,0.55
2023-01-27T02:52:59.004Z,0.56
2023-01-27T02:55:25.488Z,0.53
2023-01-27T02:57:51.953Z,0.53
2023-01-27T03:00:18.516Z,0.54
2023-01-27T03:02:45.072Z,0.55
2023-01-27T03:05:13.315Z,0.55
2023-01-27T03:07:40.048Z,0.55
2023-01-27T03:10:07.014Z,0.56
2023-01-27T03:12:33.521Z,0.58
2023-01-27T03:15:18.549Z,0.56
2023-01-27T03:18:03.877Z,0.56
2023-01-27T03:20:30.579Z,0.58
2023-01-27T03:22:57.119Z,0.58
2023-01-27T03:25:23.672Z,0.58
2023-01-27T03:27:51.261Z,0.60
2023-01-27T03:30:17.856Z,0.60
2023-01-27T03:32:46.412Z,0.60
2023-01-27T03:35:20.297Z,0.61
2023-01-27T03:38:05.365Z,0.60
2023-01-27T03:40:50.422Z,0.61
2023-01-27T03:43:35.814Z,0.61
2023-01-27T03:46:20.729Z,0.58
2023-01-27T03:48:52.861Z,0.56
2023-01-27T03:51:21.938Z,0.57
2023-01-27T03:53:48.779Z,0.58
2023-01-27T03:56:16.473Z,0.54
2023-01-27T03:58:43.658Z,0.57
2023-01-27T04:01:16.678Z,0.61
2023-01-27T04:04:02.119Z,0.59
2023-01-27T04:06:49.523Z,0.61
2023-01-27T04:09:28.024Z,0.64
2023-01-27T04:11:56.553Z,0.64
2023-01-27T04:14:31.927Z,0.64
2023-01-27T04:17:04.217Z,0.68
2023-01-27T04:19:31.242Z,0.70
2023-01-27T04:21:59.112Z,0.72
2023-01-27T04:24:26.435Z,0.73
2023-01-27T04:26:57.282Z,0.73
2023-01-27T04:29:26.186Z,0.76
2023-01-27T04:31:53.193Z,0.74
2023-01-27T04:34:19.958Z,0.74
2023-01-27T04:36:47.576Z,0.71
2023-01-27T04:39:16.467Z,0.71
2023-01-27T04:41:43.608Z,0.69
2023-01-27T04:44:10.509Z,0.68
2023-01-27T04:46:37.735Z,0.68
2023-01-27T04:49:05.559Z,0.70
2023-01-27T04:51:32.990Z,0.68
2023-01-27T04:54:00.048Z,0.66
2023-01-27T04:56:38.418Z,0.68
2023-01-27T04:59:07.570Z,0.68
2023-01-27T05:01:34.399Z,0.67
2023-01-27T05:04:00.887Z,0.63
2023-01-27T05:06:27.687Z,0.62
2023-01-27T05:08:54.670Z,0.61
2023-01-27T05:11:21.613Z,0.61
2023-01-27T05:13:48.762Z,0.63
2023-01-27T05:16:20.964Z,0.63
2023-01-27T05:18:49.777Z,0.66
2023-01-27T05:21:18.859Z,0.68
2023-01-27T05:23:45.961Z,0.68
2023-01-27T05:26:20.917Z,0.66
2023-01-27T05:28:48.863Z,0.68
2023-01-27T05:31:21.421Z,0.70
2023-01-27T05:33:51.014Z,0.68
2023-01-27T05:36:19.696Z,0.69
2023-01-27T05:38:46.680Z,0.71
2023-01-27T05:41:15.082Z,0.72
2023-01-27T05:43:43.066Z,0.75
2023-01-27T05:46:16.822Z,0.75
2023-01-27T05:48:48.453Z,0.75
2023-01-27T05:51:16.364Z,0.76
2023-01-27T05:53:43.855Z,0.76
2023-01-27T05:56:12.404Z,0.76
2023-01-27T05:58:39.506Z,0.76
2023-01-27T06:01:20.231Z,0.77
2023-01-27T06:03:47.601Z,0.75
2023-01-27T06:06:16.978Z,0.72
2023-01-27T06:08:43.700Z,0.74
2023-01-27T06:11:10.281Z,0.73
2023-01-27T06:13:38.738Z,0.75
2023-01-27T06:16:08.147Z,0.76
2023-01-27T06:18:35.378Z,0.78
2023-01-27T06:21:03.671Z,0.78
2023-01-27T06:23:30.246Z,0.80
2023-01-27T06:26:00.743Z,0.81
2023-01-27T06:28:29.483Z,0.84
2023-01-27T06:31:06.291Z,0.82
2023-01-27T06:33:32.826Z,0.83
2023-01-27T06:36:04.834Z,0.87
2023-01-27T06:38:31.514Z,0.87
2023-01-27T06:40:58.129Z,0.88
2023-01-27T06:43:24.711Z,0.88
2023-01-27T06:45:51.998Z,0.88
2023-01-27T06:48:19.156Z,0.88
2023-01-27T06:50:46.018Z,0.91
2023-01-27T06:53:12.526Z,0.90
2023-01-27T06:55:41.853Z,0.90
2023-01-27T06:58:10.649Z,0.93
2023-01-27T07:00:38.394Z,0.92
2023-01-27T07:03:05.525Z,0.91
2023-01-27T07:05:34.275Z,0.95
2023-01-27T07:08:01.083Z,0.94
2023-01-27T07:10:27.961Z,0.96
2023-01-27T07:13:04.856Z,0.98
2023-01-27T07:15:32.194Z,0.98
2023-01-27T07:17:59.745Z,0.99
2023-01-27T07:20:29.297Z,1.01
2023-01-27T07:22:59.685Z,1.00
2023-01-27T07:25:26.986Z,0.98
2023-01-27T07:27:53.822Z,0.98
2023-01-27T07:30:20.354Z,0.99
2023-01-27T07:32:46.870Z,1.00
2023-01-27T07:35:13.345Z,0.99
2023-01-27T07:37:39.840Z,1.00
2023-01-27T07:40:06.982Z,0.99
2023-01-27T07:42:33.531Z,0.99
2023-01-27T07:45:00.039Z,0.99
2023-01-27T07:47:26.764Z,1.01
2023-01-27T07:49:53.256Z,1.03
2023-01-27T07:52:19.748Z,1.07
2023-01-27T07:54:49.370Z,1.08
2023-01-27T07:57:16.045Z,1.12
2023-01-27T07:59:42.584Z,1.15
2023-01-27T08:02:10.342Z,1.16
2023-01-27T08:04:50.877Z,1.17
2023-01-27T08:07:18.764Z,1.21
2023-01-27T08:09:45.320Z,1.24
2023-01-27T08:12:11.835Z,1.25
2023-01-27T08:14:38.266Z,1.26
2023-01-27T08:17:04.684Z,1.26
2023-01-27T08:19:31.182Z,1.25
2023-01-27T08:21:57.628Z,1.23
2023-01-27T08:24:24.157Z,1.22
2023-01-27T08:26:50.609Z,1.22
2023-01-27T08:29:17.584Z,1.20
2023-01-27T08:31:44.106Z,1.20
2023-01-27T08:34:13.131Z,1.19
2023-01-27T08:36:43.510Z,1.17
2023-01-27T08:39:11.188Z,1.17
2023-01-27T08:41:38.463Z,1.21
2023-01-27T08:44:05.021Z,1.23
2023-01-27T08:46:31.477Z,1.26
2023-01-27T08:48:57.996Z,1.29
2023-01-27T08:51:24.476Z,1.28
2023-01-27T08:53:51.031Z,1.28
2023-01-27T08:56:17.520Z,1.32
2023-01-27T08:58:48.291Z,1.35
2023-01-27T09:01:16.149Z,1.42
2023-01-27T09:03:42.792Z,1.48
2023-01-27T09:06:11.901Z,1.50
2023-01-27T09:08:39.798Z,1.52
2023-01-27T09:11:14.816Z,1.57
2023-01-27T09:13:41.567Z,1.58
2023-01-27T09:16:08.763Z,1.57
2023-01-27T09:18:35.928Z,1.54
2023-01-27T09:21:06.441Z,1.51
2023-01-27T09:23:35.902Z,1.52
2023-01-27T09:26:02.396Z,1.59
2023-01-27T09:28:28.957Z,1.60
2023-01-27T09:30:59.236Z,1.62
2023-01-27T09:33:26.453Z,1.64
2023-01-27T09:35:59.762Z,1.69
2023-01-27T09:38:31.482Z,1.70
2023-01-27T09:41:03.873Z,1.65
2023-01-27T09:44:01.735Z,1.63
2023-01-27T09:46:37.319Z,1.62
2023-01-27T09:49:28.682Z,1.58
2023-01-27T09:52:10.008Z,1.60
2023-01-27T09:55:18.152Z,1.58
2023-01-27T09:57:50.734Z,1.52
2023-01-27T10:00:17.129Z,1.51
2023-01-27T10:03:23.578Z,1.51
2023-01-27T10:06:11.232Z,1.47
2023-01-27T10:09:07.088Z,1.46
2023-01-27T10:11:59.241Z,1.46
2023-01-27T10:14:36.082Z,1.48
2023-01-27T10:17:24.225Z,1.51
2023-01-27T10:20:25.211Z,1.51
2023-01-27T10:23:13.860Z,1.50
2023-01-27T10:25:50.236Z,1.52
2023-01-27T10:28:22.305Z,1.53
2023-01-27T10:30:51.882Z,1.50
2023-01-27T10:33:21.005Z,1.51
2023-01-27T10:36:00.191Z,1.52
2023-01-27T10:38:37.553Z,1.54
2023-01-27T10:41:13.990Z,1.51
2023-01-27T10:43:59.910Z,1.55
2023-01-27T10:46:44.693Z,1.54
2023-01-27T10:49:24.322Z,1.55
2023-01-27T10:52:30.153Z,1.59
2023-01-27T10:55:07.804Z,1.64
2023-01-27T10:57:49.477Z,1.66
2023-01-27T11:03:23.533Z,1.73
2023-01-27T11:05:57.987Z,1.74
2023-01-27T11:08:33.002Z,1.75
2023-01-27T11:11:21.943Z,1.77
2023-01-27T11:13:49.489Z,1.76
2023-01-27T11:16:19.516Z,1.75
2023-01-27T11:18:54.045Z,1.79
2023-01-27T11:21:28.060Z,1.78
2023-01-27T11:23:57.086Z,1.86
2023-01-27T11:26:26.727Z,1.88
2023-01-27T11:29:08.215Z,1.86
2023-01-27T11:31:48.659Z,1.86
2023-01-27T11:34:35.614Z,1.94
2023-01-27T11:37:26.425Z,1.94
2023-01-27T11:39:53.344Z,1.96
2023-01-27T11:42:29.164Z,2.00
2023-01-27T11:44:59.753Z,2.00
2023-01-27T11:47:40.237Z,1.98
2023-01-27T11:50:08.957Z,1.94
2023-01-27T11:52:35.477Z,1.86
2023-01-27T11:55:08.316Z,1.88
2023-01-27T11:57:41.275Z,1.92
2023-01-27T12:00:25.328Z,1.93
2023-01-27T12:03:03.438Z,1.95
2023-01-27T12:05:42.596Z,1.93
2023-01-27T12:08:09.284Z,1.99
2023-01-27T12:10:43.585Z,1.93
2023-01-27T12:13:18.037Z,1.93
2023-01-27T12:15:52.106Z,1.90
2023-01-27T12:18:19.040Z,1.95
2023-01-27T12:20:48.597Z,1.89
2023-01-27T12:23:24.365Z,1.89
2023-01-27T12:25:57.940Z,1.86
2023-01-27T12:28:40.151Z,1.78
2023-01-27T12:31:29.339Z,1.78
2023-01-27T12:34:28.462Z,1.77
2023-01-27T12:36:56.215Z,1.81
2023-01-27T12:39:40.950Z,1.75
2023-01-27T12:42:47.134Z,1.80
2023-01-27T12:45:23.065Z,1.79
2023-01-27T12:48:00.128Z,1.77
2023-01-27T12:50:29.805Z,1.76
2023-01-27T12:53:13.969Z,1.70
2023-01-27T12:55:46.436Z,1.74
2023-01-27T12:58:36.200Z,1.69
2023-01-27T13:01:26.798Z,1.64
2023-01-27T13:04:15.311Z,1.64
2023-01-27T13:06:47.632Z,1.65
2023-01-27T13:09:50.556Z,1.63
2023-01-27T13:12:21.695Z,1.61
2023-01-27T13:14:55.253Z,1.60
2023-01-27T13:17:36.893Z,1.63
2023-01-27T13:20:26.900Z,1.64
2023-01-27T13:23:14.724Z,1.59
2023-01-27T13:25:49.930Z,1.63
2023-01-27T13:28:24.033Z,1.59
2023-01-27T13:30:56.528Z,1.55
2023-01-27T13:34:07.481Z,1.54
2023-01-27T13:36:37.858Z,1.55
2023-01-27T13:39:04.285Z,1.57
2023-01-27T13:41:47.617Z,1.59
2023-01-27T13:44:49.680Z,1.58
2023-01-27T13:47:29.052Z,1.73
2023-01-27T13:50:08.041Z,1.70
2023-01-27T13:52:35.785Z,1.70
2023-01-27T13:55:02.308Z,1.62
2023-01-27T13:58:04.153Z,1.60
2023-01-27T14:00:39.969Z,1.55
2023-01-27T14:03:19.943Z,1.54
2023-01-27T14:06:05.625Z,1.58
2023-01-27T14:09:00.089Z,1.55
2023-01-27T14:12:02.420Z,1.54
2023-01-27T14:14:56.190Z,1.55
2023-01-27T14:17:34.295Z,1.52
2023-01-27T14:20:15.401Z,1.48
2023-01-27T14:22:55.058Z,1.51
2023-01-27T14:25:35.054Z,1.48
2023-01-27T14:28:12.136Z,1.52
2023-01-27T14:30:42.729Z,1.52
2023-01-27T14:33:34.967Z,1.55
2023-01-27T14:36:10.826Z,1.54
2023-01-27T14:39:12.082Z,1.55
2023-01-27T14:45:04.261Z,1.63
2023-01-27T14:47:42.869Z,1.59
2023-01-27T14:50:32.754Z,1.55
2023-01-27T14:53:00.039Z,1.55
2023-01-27T14:55:58.458Z,1.53
2023-01-27T14:58:24.884Z,1.46
2023-01-27T15:01:09.727Z,1.41
2023-01-27T15:03:48.667Z,1.42
2023-01-27T15:06:33.813Z,1.45
2023-01-27T15:09:27.465Z,1.47
2023-01-27T15:12:11.883Z,1.44
2023-01-27T15:14:57.808Z,1.39
2023-01-27T15:18:12.295Z,1.37
2023-01-27T15:21:00.661Z,1.34
2023-01-27T15:23:27.091Z,1.38
2023-01-27T15:25:57.657Z,1.37
2023-01-27T15:28:32.125Z,1.37
2023-01-27T15:31:05.985Z,1.35
2023-01-27T15:33:55.289Z,1.33
2023-01-27T15:36:27.711Z,1.27
2023-01-27T15:39:09.444Z,1.31
2023-01-27T15:41:39.289Z,1.33
2023-01-27T15:44:16.947Z,1.26
2023-01-27T15:46:51.777Z,1.23
2023-01-27T15:49:23.003Z,1.23
2023-01-27T15:51:53.136Z,1.23
2023-01-27T15:54:26.682Z,1.27
2023-01-27T15:56:55.133Z,1.34
2023-01-27T15:59:30.398Z,1.38
2023-01-27T16:02:05.022Z,1.37
2023-01-27T16:04:33.374Z,1.35
2023-01-27T16:07:05.865Z,1.30
2023-01-27T16:09:39.992Z,1.32
2023-01-27T16:12:30.878Z,1.28
2023-01-27T16:15:15.811Z,1.27
2023-01-27T16:18:06.984Z,1.32
2023-01-27T16:20:39.516Z,1.31
2023-01-27T16:23:42.155Z,1.29
2023-01-27T16:26:22.619Z,1.30
2023-01-27T16:28:55.529Z,1.31
2023-01-27T16:31:30.623Z,1.31
2023-01-27T16:34:02.895Z,1.29
2023-01-27T16:36:36.606Z,1.31
2023-01-27T16:39:23.340Z,1.34
2023-01-27T16:41:59.982Z,1.30
2023-01-27T16:45:00.584Z,1.29
2023-01-27T16:47:32.598Z,1.25
2023-01-27T16:50:00.497Z,1.24
2023-01-27T16:52:41.578Z,1.22
2023-01-27T16:55:21.889Z,1.20
2023-01-27T16:57:49.595Z,1.20
2023-01-27T17:00:22.015Z,1.22
2023-01-27T17:02:51.471Z,1.21
2023-01-27T17:05:19.802Z,1.19
2023-01-27T17:08:03.755Z,1.15
2023-01-27T17:10:34.697Z,1.19
2023-01-27T17:13:04.830Z,1.22
2023-01-27T17:15:38.099Z,1.23
2023-01-27T17:18:11.573Z,1.22
2023-01-27T17:20:42.883Z,1.18
2023-01-27T17:23:21.390Z,1.12
2023-01-27T17:25:49.653Z,1.15
2023-01-27T17:28:23.116Z,1.16
2023-01-27T17:30:50.690Z,1.16
2023-01-27T17:33:24.345Z,1.19
2023-01-27T17:35:57.102Z,1.19
2023-01-27T17:38:36.055Z,1.18
2023-01-27T17:41:05.826Z,1.16
2023-01-27T17:43:41.705Z,1.14
2023-01-27T17:46:16.214Z,1.07
2023-01-27T17:48:52.234Z,1.07
2023-01-27T17:51:21.929Z,1.08
2023-01-27T17:53:50.538Z,1.08
2023-01-27T17:56:29.419Z,1.08
2023-01-27T17:59:06.001Z,1.09
2023-01-27T18:01:33.910Z,1.07
2023-01-27T18:04:06.166Z,1.08
2023-01-27T18:06:33.275Z,1.13
2023-01-27T18:09:14.663Z,1.13
2023-01-27T18:12:01.389Z,1.14
2023-01-27T18:14:33.634Z,1.16
2023-01-27T18:17:24.429Z,1.15
2023-01-27T18:19:53.328Z,1.16
2023-01-27T18:22:30.361Z,1.16
2023-01-27T18:25:00.722Z,1.16
2023-01-27T18:27:31.602Z,1.17
2023-01-27T18:30:19.090Z,1.19
2023-01-27T18:32:50.217Z,1.22
2023-01-27T18:35:26.596Z,1.19
2023-01-27T18:38:03.951Z,1.18
2023-01-27T18:40:37.131Z,1.19
2023-01-27T18:43:05.381Z,1.15
2023-01-27T18:45:31.846Z,1.18
2023-01-27T18:47:59.519Z,1.20
2023-01-27T18:50:27.096Z,1.19
2023-01-27T18:52:54.544Z,1.17
2023-01-27T18:55:26.923Z,1.17
2023-01-27T18:57:59.324Z,1.17
2023-01-27T19:00:38.074Z,1.16
2023-01-27T19:03:11.493Z,1.15
2023-01-27T19:05:37.995Z,1.13
2023-01-27T19:08:05.014Z,1.13
2023-01-27T19:10:34.516Z,1.14
2023-01-27T19:13:02.940Z,1.13
2023-01-27T19:15:35.091Z,1.13
2023-01-27T19:18:09.324Z,1.08
2023-01-27T19:20:38.939Z,1.08
2023-01-27T19:23:05.490Z,1.02
2023-01-27T19:25:31.957Z,1.00
2023-01-27T19:28:04.472Z,0.97
2023-01-27T19:30:38.454Z,0.98
2023-01-27T19:33:18.870Z,0.97
2023-01-27T19:35:48.532Z,0.94
2023-01-27T19:38:22.831Z,0.92
2023-01-27T19:40:49.511Z,0.96
2023-01-27T19:43:16.305Z,0.93
2023-01-27T19:45:45.621Z,0.99
2023-01-27T19:48:38.499Z,0.96
2023-01-27T19:51:28.151Z,0.97
2023-01-27T19:53:57.828Z,0.94
2023-01-27T19:56:28.866Z,1.05
2023-01-27T19:58:55.545Z,1.05
2023-01-27T20:01:24.807Z,1.11
2023-01-27T20:03:53.135Z,1.10
2023-01-27T20:06:25.252Z,1.12
2023-01-27T20:08:57.032Z,1.04
2023-01-27T20:11:35.752Z,0.99
2023-01-27T20:14:12.650Z,0.96
2023-01-27T20:16:39.576Z,0.92
2023-01-27T20:19:06.538Z,0.98
2023-01-27T20:21:34.477Z,0.95
2023-01-27T20:24:01.827Z,0.92
2023-01-27T20:26:30.558Z,0.92
2023-01-27T20:28:57.007Z,0.87
2023-01-27T20:31:23.845Z,0.86
2023-01-27T20:33:50.667Z,0.84
2023-01-27T20:36:20.395Z,0.85
2023-01-27T20:38:47.133Z,0.87
2023-01-27T20:41:19.637Z,0.85
2023-01-27T20:43:47.012Z,0.82
2023-01-27T20:46:17.249Z,0.79
2023-01-27T20:48:43.981Z,0.82
2023-01-27T20:51:13.459Z,0.82
2023-01-27T20:53:45.848Z,0.82
2023-01-27T20:56:30.397Z,0.90
2023-01-27T20:58:56.944Z,0.84
2023-01-27T21:01:23.786Z,0.78
2023-01-27T21:03:50.870Z,0.74
2023-01-27T21:06:19.814Z,0.76
2023-01-27T21:08:49.786Z,0.75
2023-01-27T21:11:18.548Z,0.75
2023-01-27T21:13:45.365Z,0.74
2023-01-27T21:16:12.369Z,0.73
2023-01-27T21:18:39.012Z,0.73
2023-01-27T21:21:06.080Z,0.74
2023-01-27T21:23:33.975Z,0.72
2023-01-27T21:26:09.624Z,0.72
2023-01-27T21:28:36.460Z,0.72
2023-01-27T21:31:07.980Z,0.70
2023-01-27T21:33:36.444Z,0.73
2023-01-27T21:36:03.974Z,0.74
2023-01-27T21:38:31.380Z,0.76
2023-01-27T21:41:09.829Z,0.76
2023-01-27T21:43:55.317Z,0.75
2023-01-27T21:46:21.890Z,0.74
2023-01-27T21:48:48.454Z,0.74
2023-01-27T21:51:15.121Z,0.71
2023-01-27T21:53:41.988Z,0.74
2023-01-27T21:56:10.733Z,0.75
2023-01-27T21:58:37.607Z,0.73
2023-01-27T22:01:14.071Z,0.73
2023-01-27T22:03:44.362Z,0.70
2023-01-27T22:06:10.889Z,0.70
2023-01-27T22:08:37.465Z,0.70
2023-01-27T22:11:12.541Z,0.69
2023-01-27T22:13:39.463Z,0.72
2023-01-27T22:16:06.610Z,0.68
2023-01-27T22:18:33.360Z,0.68
2023-01-27T22:21:03.007Z,0.64
2023-01-27T22:23:32.129Z,0.71
2023-01-27T22:25:58.582Z,0.70
2023-01-27T22:31:11.801Z,0.71
2023-01-27T22:33:38.255Z,0.72
2023-01-27T22:36:05.463Z,0.70
2023-01-27T22:38:32.020Z,0.69
2023-01-27T22:40:59.173Z,0.69
2023-01-27T22:43:25.934Z,0.68
2023-01-27T22:46:00.545Z,0.68
2023-01-27T22:48:30.293Z,0.66
2023-01-27T22:50:59.550Z,0.66
2023-01-27T22:53:26.019Z,0.68
2023-01-27T22:55:59.308Z,0.64
2023-01-27T22:58:26.733Z,0.65
2023-01-27T23:00:53.775Z,0.64
2023-01-27T23:03:21.228Z,0.63
2023-01-27T23:05:51.085Z,0.62
2023-01-27T23:08:20.901Z,0.64
2023-01-27T23:10:48.313Z,0.66
2023-01-27T23:13:14.956Z,0.65
2023-01-27T23:15:41.481Z,0.61
2023-01-27T23:18:11.329Z,0.59
2023-01-27T23:20:44.670Z,0.61
2023-01-27T23:23:14.892Z,0.60
2023-01-27T23:25:46.350Z,0.58
2023-01-27T23:28:15.203Z,0.58
2023-01-27T23:30:49.056Z,0.58
2023-01-27T23:33:17.591Z,0.58
2023-01-27T23:35:44.603Z,0.57
2023-01-27T23:38:26.343Z,0.58
2023-01-27T23:41:14.395Z,0.54
2023-01-27T23:43:40.940Z,0.53
2023-01-27T23:46:07.528Z,0.51
2023-01-27T23:48:34.109Z,0.55
2023-01-27T23:51:06.563Z,0.52
2023-01-27T23:53:33.347Z,0.52
2023-01-27T23:56:03.487Z,0.52
2023-01-27T23:58:30.195Z,0.53
